createdAt,value
2022-11-27T00:01:32.403Z,2.12
2022-11-27T00:03:59.655Z,2.09
2022-11-27T00:06:28.985Z,2.03
2022-11-27T00:08:57.969Z,2.09
2022-11-27T00:11:26.976Z,2.08
2022-11-27T00:13:54.650Z,2.08
2022-11-27T00:16:23.158Z,2.07
2022-11-27T00:18:50.785Z,2.08
2022-11-27T00:21:24.874Z,2.10
2022-11-27T00:23:53.636Z,2.10
2022-11-27T00:26:22.893Z,2.09
2022-11-27T00:28:51.458Z,2.06
2022-11-27T00:31:21.568Z,2.04
2022-11-27T00:33:49.432Z,2.00
2022-11-27T00:36:16.914Z,1.99
2022-11-27T00:38:44.050Z,1.95
2022-11-27T00:41:18.866Z,1.93
2022-11-27T00:43:46.896Z,1.93
2022-11-27T00:46:16.280Z,1.92
2022-11-27T00:48:44.283Z,1.92
2022-11-27T00:51:14.846Z,1.89
2022-11-27T00:53:42.548Z,1.94
2022-11-27T00:56:21.718Z,1.92
2022-11-27T00:58:49.232Z,1.96
2022-11-27T01:01:27.993Z,1.96
2022-11-27T01:03:57.008Z,1.96
2022-11-27T01:06:25.525Z,1.91
2022-11-27T01:08:52.583Z,1.98
2022-11-27T01:11:23.367Z,2.01
2022-11-27T01:13:50.426Z,2.03
2022-11-27T01:16:20.926Z,2.03
2022-11-27T01:21:20.119Z,2.02
2022-11-27T01:23:48.527Z,2.03
2022-11-27T01:26:18.544Z,2.02
2022-11-27T01:31:21.602Z,1.98
2022-11-27T01:33:56.922Z,1.95
2022-11-27T01:36:25.278Z,1.95
2022-11-27T01:38:52.525Z,1.96
2022-11-27T01:41:33.627Z,1.94
2022-11-27T01:44:24.210Z,1.99
2022-11-27T01:47:06.115Z,1.98
2022-11-27T01:49:39.188Z,1.96
2022-11-27T01:52:15.240Z,1.90
2022-11-27T01:54:49.780Z,1.95
2022-11-27T01:57:22.605Z,1.95
2022-11-27T01:59:52.276Z,1.90
2022-11-27T02:02:19.755Z,1.87
2022-11-27T02:04:46.822Z,1.83
2022-11-27T02:07:14.383Z,1.81
2022-11-27T02:12:15.262Z,1.75
2022-11-27T02:14:55.351Z,1.73
2022-11-27T02:17:38.844Z,1.62
2022-11-27T02:20:24.059Z,1.67
2022-11-27T02:23:26.831Z,1.61
2022-11-27T02:26:12.632Z,1.53
2022-11-27T02:29:05.484Z,1.51
2022-11-27T02:31:45.493Z,1.46
2022-11-27T02:34:31.201Z,1.38
2022-11-27T02:37:12.233Z,1.36
2022-11-27T02:39:50.458Z,1.32
2022-11-27T02:42:21.224Z,1.28
2022-11-27T02:45:12.591Z,1.22
2022-11-27T02:47:43.923Z,1.22
2022-11-27T02:50:23.913Z,1.21
2022-11-27T02:52:54.852Z,1.16
2022-11-27T02:55:26.449Z,1.12
2022-11-27T02:57:56.995Z,1.08
2022-11-27T03:00:24.827Z,1.06
2022-11-27T03:03:00.624Z,1.04
2022-11-27T03:05:33.594Z,0.99
2022-11-27T03:08:26.728Z,0.99
2022-11-27T03:11:08.433Z,0.94
2022-11-27T03:13:44.018Z,0.91
2022-11-27T03:16:30.333Z,0.91
2022-11-27T03:19:16.080Z,0.84
2022-11-27T03:21:54.427Z,0.81
2022-11-27T03:24:22.045Z,0.77
2022-11-27T03:26:49.728Z,0.75
2022-11-27T03:29:31.292Z,0.73
2022-11-27T03:31:58.784Z,0.74
2022-11-27T03:34:26.589Z,0.73
2022-11-27T03:36:54.225Z,0.70
2022-11-27T03:39:23.808Z,0.74
2022-11-27T03:42:13.147Z,0.73
2022-11-27T03:44:55.468Z,0.74
2022-11-27T03:47:50.886Z,0.73
2022-11-27T03:50:17.929Z,0.73
2022-11-27T03:53:22.817Z,0.71
2022-11-27T03:56:10.388Z,0.70
2022-11-27T03:58:50.283Z,0.67
2022-11-27T04:01:20.529Z,0.64
2022-11-27T04:03:49.392Z,0.59
2022-11-27T04:06:16.983Z,0.56
2022-11-27T04:08:49.071Z,0.59
2022-11-27T04:11:16.185Z,0.61
2022-11-27T04:13:43.647Z,0.67
2022-11-27T04:16:10.893Z,0.69
2022-11-27T04:18:38.301Z,0.76
2022-11-27T04:21:05.588Z,0.86
2022-11-27T04:23:33.068Z,0.87
2022-11-27T04:25:59.996Z,1.01
2022-11-27T04:28:27.370Z,1.03
2022-11-27T04:30:55.018Z,1.14
2022-11-27T04:33:23.260Z,1.20
2022-11-27T04:35:53.647Z,1.26
2022-11-27T04:38:21.873Z,1.29
2022-11-27T04:40:51.465Z,1.33
2022-11-27T04:43:19.753Z,1.38
2022-11-27T04:48:29.596Z,1.44
2022-11-27T04:50:56.528Z,1.46
2022-11-27T04:53:39.477Z,1.41
2022-11-27T04:56:13.967Z,1.37
2022-11-27T04:58:41.394Z,1.38
2022-11-27T05:01:10.084Z,1.43
2022-11-27T05:03:39.729Z,1.42
2022-11-27T05:06:07.283Z,1.43
2022-11-27T05:08:36.133Z,1.41
2022-11-27T05:13:45.778Z,1.42
2022-11-27T05:16:12.976Z,1.46
2022-11-27T05:18:43.023Z,1.54
2022-11-27T05:21:10.547Z,1.57
2022-11-27T05:23:40.071Z,1.58
2022-11-27T05:26:08.588Z,1.61
2022-11-27T05:31:23.863Z,1.63
2022-11-27T05:33:54.035Z,1.65
2022-11-27T05:36:32.543Z,1.60
2022-11-27T05:39:21.360Z,1.69
2022-11-27T05:41:48.713Z,1.72
2022-11-27T05:44:16.127Z,1.71
2022-11-27T05:46:43.908Z,1.71
2022-11-27T05:49:15.793Z,1.72
2022-11-27T05:51:50.365Z,1.82
2022-11-27T05:54:18.823Z,1.88
2022-11-27T05:56:46.384Z,1.90
2022-11-27T05:59:13.336Z,1.91
2022-11-27T06:01:40.819Z,1.93
2022-11-27T06:04:08.059Z,1.97
2022-11-27T06:06:35.538Z,2.01
2022-11-27T06:09:03.493Z,2.08
2022-11-27T06:11:33.216Z,2.06
2022-11-27T06:14:00.229Z,2.16
2022-11-27T06:16:27.748Z,2.17
2022-11-27T06:18:56.152Z,2.16
2022-11-27T06:21:24.304Z,2.20
2022-11-27T06:23:56.214Z,2.23
2022-11-27T06:26:28.918Z,2.34
2022-11-27T06:28:57.251Z,2.39
2022-11-27T06:31:29.475Z,2.42
2022-11-27T06:33:57.084Z,2.49
2022-11-27T06:36:28.923Z,2.48
2022-11-27T06:38:56.274Z,2.56
2022-11-27T06:41:28.841Z,2.61
2022-11-27T06:44:00.974Z,2.71
2022-11-27T06:46:32.131Z,2.81
2022-11-27T06:48:59.804Z,2.90
2022-11-27T06:51:31.013Z,2.92
2022-11-27T06:54:01.673Z,2.96
2022-11-27T06:56:31.735Z,3.03
2022-11-27T06:59:00.785Z,3.03
2022-11-27T07:01:32.071Z,3.09
2022-11-27T07:04:01.438Z,3.03
2022-11-27T07:06:28.921Z,2.96
2022-11-27T07:08:56.060Z,2.99
2022-11-27T07:11:27.897Z,3.04
2022-11-27T07:13:57.392Z,3.01
2022-11-27T07:16:25.861Z,3.05
2022-11-27T07:18:55.975Z,3.10
2022-11-27T07:21:23.734Z,3.09
2022-11-27T07:23:51.106Z,3.13
2022-11-27T07:29:15.767Z,3.08
2022-11-27T07:31:43.152Z,3.10
2022-11-27T07:34:15.935Z,3.11
2022-11-27T07:36:48.397Z,3.36
2022-11-27T07:42:40.406Z,3.66
2022-11-27T07:45:08.797Z,3.71
2022-11-27T07:47:50.626Z,3.72
2022-11-27T07:50:20.648Z,3.84
2022-11-27T07:56:26.729Z,3.91
2022-11-27T07:59:00.845Z,4.06
2022-11-27T08:04:15.325Z,4.10
2022-11-27T08:10:05.921Z,4.16
2022-11-27T08:12:33.263Z,4.14
2022-11-27T08:15:02.118Z,3.95
2022-11-27T08:17:30.040Z,3.84
2022-11-27T08:19:59.632Z,3.71
2022-11-27T08:22:29.567Z,3.65
2022-11-27T08:24:56.700Z,3.80
2022-11-27T08:27:24.370Z,3.93
2022-11-27T08:29:51.494Z,3.95
2022-11-27T08:32:18.835Z,3.94
2022-11-27T08:34:47.388Z,3.93
2022-11-27T08:37:17.460Z,4.05
2022-11-27T08:39:50.500Z,4.08
2022-11-27T08:42:20.353Z,4.17
2022-11-27T08:44:51.397Z,4.21
2022-11-27T08:47:18.822Z,4.37
2022-11-27T08:49:46.502Z,4.48
2022-11-27T08:52:15.310Z,4.53
2022-11-27T08:54:42.533Z,4.52
2022-11-27T08:57:10.037Z,4.64
2022-11-27T08:59:37.116Z,4.73
2022-11-27T09:02:04.471Z,4.69
2022-11-27T09:04:31.497Z,4.83
2022-11-27T09:06:59.063Z,5.03
2022-11-27T09:09:29.442Z,5.13
2022-11-27T09:11:58.022Z,5.03
2022-11-27T09:14:25.138Z,4.83
2022-11-27T09:16:55.406Z,4.77
2022-11-27T09:19:22.586Z,4.76
2022-11-27T09:22:06.268Z,4.74
2022-11-27T09:24:34.232Z,4.85
2022-11-27T09:27:02.174Z,5.07
2022-11-27T09:29:30.093Z,5.16
2022-11-27T09:32:12.964Z,5.24
2022-11-27T09:34:40.767Z,5.13
2022-11-27T09:37:09.363Z,4.98
2022-11-27T09:39:36.867Z,5.01
2022-11-27T09:42:15.612Z,5.06
2022-11-27T09:45:06.107Z,5.28
2022-11-27T09:47:42.126Z,5.46
2022-11-27T09:50:24.482Z,5.59
2022-11-27T09:53:00.405Z,5.68
2022-11-27T09:55:43.263Z,5.98
2022-11-27T09:58:19.280Z,5.95
2022-11-27T10:00:49.674Z,6.10
2022-11-27T10:03:24.359Z,6.34
2022-11-27T10:06:06.148Z,6.66
2022-11-27T10:08:54.615Z,6.62
2022-11-27T10:11:38.562Z,6.27
2022-11-27T10:14:34.174Z,6.23
2022-11-27T10:17:27.611Z,6.11
2022-11-27T10:20:14.017Z,6.20
2022-11-27T10:22:58.842Z,6.43
2022-11-27T10:25:48.194Z,6.65
2022-11-27T10:28:36.908Z,6.57
2022-11-27T10:31:17.421Z,6.52
2022-11-27T10:34:25.625Z,6.38
2022-11-27T10:39:50.644Z,6.27
2022-11-27T10:42:22.833Z,6.12
2022-11-27T10:45:07.587Z,6.13
2022-11-27T10:47:34.847Z,5.96
2022-11-27T10:50:02.203Z,5.92
2022-11-27T10:52:29.315Z,5.82
2022-11-27T10:55:00.941Z,5.75
2022-11-27T10:58:02.115Z,5.69
2022-11-27T11:00:29.725Z,5.64
2022-11-27T11:03:02.671Z,5.62
2022-11-27T11:05:45.006Z,5.59
2022-11-27T11:11:27.793Z,5.56
2022-11-27T11:13:56.036Z,5.57
2022-11-27T11:16:33.322Z,5.58
2022-11-27T11:19:03.724Z,5.59
2022-11-27T11:21:38.481Z,5.75
2022-11-27T11:24:13.891Z,5.74
2022-11-27T11:26:49.433Z,5.76
2022-11-27T11:29:49.033Z,5.76
2022-11-27T11:32:35.388Z,5.79
2022-11-27T11:35:24.014Z,5.79
2022-11-27T11:37:53.077Z,5.73
2022-11-27T11:40:20.474Z,5.75
2022-11-27T11:42:58.459Z,5.63
2022-11-27T11:45:32.656Z,5.57
2022-11-27T11:48:24.165Z,5.57
2022-11-27T11:50:56.081Z,5.43
2022-11-27T11:53:38.010Z,5.38
2022-11-27T11:56:28.324Z,5.40
2022-11-27T11:59:12.873Z,5.42
2022-11-27T12:02:19.954Z,5.41
2022-11-27T12:05:10.195Z,5.34
2022-11-27T12:07:48.900Z,5.23
2022-11-27T12:10:26.039Z,5.17
2022-11-27T12:13:39.095Z,5.17
2022-11-27T12:16:18.900Z,5.19
2022-11-27T12:18:55.546Z,5.16
2022-11-27T12:21:47.391Z,5.14
2022-11-27T12:24:14.689Z,5.15
2022-11-27T12:26:54.371Z,5.15
2022-11-27T12:29:51.248Z,5.14
2022-11-27T12:32:33.828Z,5.23
2022-11-27T12:35:30.242Z,5.22
2022-11-27T12:38:13.566Z,5.26
2022-11-27T12:43:49.685Z,5.32
2022-11-27T12:46:31.396Z,5.35
2022-11-27T12:49:13.845Z,5.34
2022-11-27T12:51:49.359Z,5.36
2022-11-27T12:54:37.290Z,5.40
2022-11-27T12:57:16.133Z,5.44
2022-11-27T12:59:46.206Z,5.45
2022-11-27T13:02:45.307Z,5.46
2022-11-27T13:05:23.256Z,5.37
2022-11-27T13:08:02.166Z,5.29
2022-11-27T13:10:56.494Z,5.27
2022-11-27T13:13:32.195Z,5.21
2022-11-27T13:16:22.083Z,5.19
2022-11-27T13:19:09.003Z,5.24
2022-11-27T13:21:39.560Z,5.25
2022-11-27T13:24:22.006Z,5.27
2022-11-27T13:27:08.443Z,5.25
2022-11-27T13:29:48.466Z,5.17
2022-11-27T13:32:20.785Z,5.16
2022-11-27T13:34:51.974Z,5.05
2022-11-27T13:37:32.609Z,5.07
2022-11-27T13:40:09.305Z,4.97
2022-11-27T13:42:48.954Z,4.94
2022-11-27T13:45:24.315Z,4.99
2022-11-27T13:47:52.325Z,4.97
2022-11-27T13:50:29.674Z,4.98
2022-11-27T13:53:05.344Z,4.93
2022-11-27T13:55:35.277Z,5.01
2022-11-27T13:58:10.229Z,4.98
2022-11-27T14:00:46.621Z,4.98
2022-11-27T14:03:29.985Z,4.98
2022-11-27T14:08:51.121Z,4.86
2022-11-27T14:14:18.445Z,4.87
2022-11-27T14:16:58.923Z,4.82
2022-11-27T14:19:34.492Z,4.76
2022-11-27T14:22:14.740Z,4.71
2022-11-27T14:24:46.792Z,4.62
2022-11-27T14:27:29.087Z,4.57
2022-11-27T14:29:56.588Z,4.56
2022-11-27T14:35:05.516Z,4.58
2022-11-27T14:37:33.147Z,4.56
2022-11-27T14:40:01.223Z,4.61
2022-11-27T14:42:37.961Z,4.63
2022-11-27T14:45:08.414Z,4.66
2022-11-27T14:48:07.447Z,4.58
2022-11-27T14:50:34.670Z,4.51
2022-11-27T14:53:14.505Z,4.46
2022-11-27T14:55:41.965Z,4.45
2022-11-27T14:58:19.775Z,4.43
2022-11-27T15:01:09.434Z,4.50
2022-11-27T15:03:41.349Z,4.46
2022-11-27T15:06:21.088Z,4.48
2022-11-27T15:09:30.157Z,4.52
2022-11-27T15:11:57.369Z,4.58
2022-11-27T15:14:31.059Z,4.56
2022-11-27T15:19:45.489Z,4.51
2022-11-27T15:22:18.046Z,4.49
2022-11-27T15:25:01.220Z,4.44
2022-11-27T15:27:34.193Z,4.48
2022-11-27T15:30:07.286Z,4.49
2022-11-27T15:32:51.759Z,4.46
2022-11-27T15:35:35.644Z,4.47
2022-11-27T15:38:11.508Z,4.46
2022-11-27T15:40:40.883Z,4.46
2022-11-27T15:43:14.073Z,4.35
2022-11-27T15:45:44.735Z,4.38
2022-11-27T15:48:17.580Z,4.39
2022-11-27T15:50:51.678Z,4.33
2022-11-27T15:53:20.571Z,4.39
2022-11-27T15:55:47.680Z,4.43
2022-11-27T15:58:15.987Z,4.40
2022-11-27T16:00:45.931Z,4.47
2022-11-27T16:03:14.914Z,4.46
2022-11-27T16:05:42.120Z,4.50
2022-11-27T16:08:12.557Z,4.48
2022-11-27T16:10:41.091Z,4.50
2022-11-27T16:13:09.118Z,4.52
2022-11-27T16:15:37.470Z,4.51
2022-11-27T16:18:07.358Z,4.55
2022-11-27T16:20:34.385Z,4.52
2022-11-27T16:23:01.820Z,4.53
2022-11-27T16:25:29.017Z,4.46
2022-11-27T16:28:02.462Z,4.49
2022-11-27T16:30:30.389Z,4.56
2022-11-27T16:33:03.643Z,4.55
2022-11-27T16:35:32.847Z,4.58
2022-11-27T16:38:04.528Z,4.62
2022-11-27T16:40:34.904Z,4.59
2022-11-27T16:43:02.399Z,4.61
2022-11-27T16:45:29.507Z,4.55
2022-11-27T16:47:59.388Z,4.61
2022-11-27T16:50:29.171Z,4.56
2022-11-27T16:55:41.290Z,4.52
2022-11-27T16:58:14.637Z,4.48
2022-11-27T17:00:44.907Z,4.50
2022-11-27T17:03:12.629Z,4.47
2022-11-27T17:05:40.450Z,4.47
2022-11-27T17:08:09.178Z,4.42
2022-11-27T17:10:37.098Z,4.37
2022-11-27T17:13:11.488Z,4.30
2022-11-27T17:15:40.850Z,4.35
2022-11-27T17:18:25.899Z,4.32
2022-11-27T17:21:03.072Z,4.28
2022-11-27T17:23:31.996Z,4.33
2022-11-27T17:26:10.635Z,4.33
2022-11-27T17:28:44.461Z,4.33
2022-11-27T17:31:17.107Z,4.33
2022-11-27T17:33:49.375Z,4.38
2022-11-27T17:36:20.212Z,4.35
2022-11-27T17:38:50.552Z,4.39
2022-11-27T17:41:18.870Z,4.36
2022-11-27T17:43:46.050Z,4.35
2022-11-27T17:46:21.018Z,4.36
2022-11-27T17:48:48.353Z,4.35
2022-11-27T17:51:15.891Z,4.39
2022-11-27T17:53:43.147Z,4.44
2022-11-27T17:56:13.465Z,4.41
2022-11-27T17:58:43.904Z,4.41
2022-11-27T18:01:17.212Z,4.39
2022-11-27T18:03:46.310Z,4.35
2022-11-27T18:06:18.685Z,4.41
2022-11-27T18:08:48.540Z,4.35
2022-11-27T18:11:22.099Z,4.38
2022-11-27T18:13:50.535Z,4.39
2022-11-27T18:16:29.604Z,4.42
2022-11-27T18:19:05.172Z,4.39
2022-11-27T18:21:32.885Z,4.37
2022-11-27T18:27:08.812Z,4.41
2022-11-27T18:29:39.486Z,4.44
2022-11-27T18:32:08.000Z,4.49
2022-11-27T18:34:44.161Z,4.50
2022-11-27T18:37:18.766Z,4.44
2022-11-27T18:39:47.472Z,4.49
2022-11-27T18:42:15.108Z,4.50
2022-11-27T18:44:45.614Z,4.43
2022-11-27T18:47:15.453Z,4.41
2022-11-27T18:49:43.928Z,4.45
2022-11-27T18:52:18.100Z,4.45
2022-11-27T18:54:45.974Z,4.45
2022-11-27T18:57:16.661Z,4.43
2022-11-27T18:59:46.349Z,4.39
2022-11-27T19:02:17.569Z,4.34
2022-11-27T19:07:31.793Z,4.32
2022-11-27T19:09:58.994Z,4.28
2022-11-27T19:12:27.073Z,4.25
2022-11-27T19:14:54.882Z,4.24
2022-11-27T19:17:27.948Z,4.22
2022-11-27T19:19:58.226Z,4.10
2022-11-27T19:22:26.325Z,4.12
2022-11-27T19:24:53.498Z,4.09
2022-11-27T19:27:20.957Z,4.09
2022-11-27T19:29:49.037Z,4.06
2022-11-27T19:32:16.428Z,4.06
2022-11-27T19:34:43.943Z,4.07
2022-11-27T19:37:12.113Z,4.10
2022-11-27T19:39:39.123Z,4.09
2022-11-27T19:42:06.767Z,4.08
2022-11-27T19:44:35.199Z,4.01
2022-11-27T19:47:02.681Z,4.02
2022-11-27T19:49:29.924Z,4.02
2022-11-27T19:51:57.570Z,3.95
2022-11-27T19:54:24.600Z,3.99
2022-11-27T19:56:53.137Z,3.90
2022-11-27T19:59:25.602Z,3.86
2022-11-27T20:02:18.644Z,3.85
2022-11-27T20:04:48.052Z,3.85
2022-11-27T20:07:15.699Z,3.88
2022-11-27T20:09:42.922Z,3.85
2022-11-27T20:12:10.792Z,3.84
2022-11-27T20:14:40.012Z,3.82
2022-11-27T20:17:07.681Z,3.86
2022-11-27T20:19:37.374Z,3.79
2022-11-27T20:22:05.932Z,3.78
2022-11-27T20:24:33.578Z,3.79
2022-11-27T20:27:00.978Z,3.82
2022-11-27T20:29:28.005Z,3.77
2022-11-27T20:31:59.234Z,3.79
2022-11-27T20:34:29.304Z,3.71
2022-11-27T20:36:56.809Z,3.77
2022-11-27T20:39:24.677Z,3.78
2022-11-27T20:41:54.557Z,3.77
2022-11-27T20:44:23.602Z,3.78
2022-11-27T20:46:51.327Z,3.78
2022-11-27T20:49:18.510Z,3.84
2022-11-27T20:51:49.116Z,3.87
2022-11-27T20:54:17.360Z,3.86
2022-11-27T20:56:46.489Z,3.84
2022-11-27T20:59:14.568Z,3.79
2022-11-27T21:01:42.706Z,3.75
2022-11-27T21:04:22.654Z,3.78
2022-11-27T21:06:54.101Z,3.86
2022-11-27T21:09:22.099Z,3.82
2022-11-27T21:11:55.615Z,3.89
2022-11-27T21:14:24.979Z,3.89
2022-11-27T21:17:04.480Z,3.86
2022-11-27T21:19:42.289Z,3.81
2022-11-27T21:22:09.838Z,3.83
2022-11-27T21:24:36.888Z,3.78
2022-11-27T21:27:04.579Z,3.78
2022-11-27T21:29:31.717Z,3.81
2022-11-27T21:31:59.284Z,3.76
2022-11-27T21:34:26.400Z,3.81
2022-11-27T21:36:54.016Z,3.82
2022-11-27T21:39:21.766Z,3.78
2022-11-27T21:41:51.050Z,3.82
2022-11-27T21:44:18.669Z,3.82
2022-11-27T21:46:47.168Z,3.86
2022-11-27T21:49:16.424Z,3.87
2022-11-27T21:51:44.479Z,3.85
2022-11-27T21:54:14.940Z,3.84
2022-11-27T21:56:43.733Z,3.87
2022-11-27T21:59:15.485Z,3.85
2022-11-27T22:01:45.349Z,3.88
2022-11-27T22:04:12.683Z,3.83
2022-11-27T22:06:41.680Z,3.81
2022-11-27T22:09:14.915Z,3.78
2022-11-27T22:11:45.183Z,3.78
2022-11-27T22:14:16.322Z,3.68
2022-11-27T22:16:46.139Z,3.65
2022-11-27T22:19:15.346Z,3.64
2022-11-27T22:21:44.836Z,3.64
2022-11-27T22:24:18.221Z,3.63
2022-11-27T22:26:47.077Z,3.66
2022-11-27T22:29:14.139Z,3.63
2022-11-27T22:31:41.631Z,3.66
2022-11-27T22:34:08.859Z,3.66
2022-11-27T22:36:36.509Z,3.65
2022-11-27T22:39:06.670Z,3.65
2022-11-27T22:41:37.068Z,3.55
2022-11-27T22:44:31.425Z,3.64
2022-11-27T22:46:59.954Z,3.59
2022-11-27T22:49:27.878Z,3.63
2022-11-27T22:51:55.554Z,3.60
2022-11-27T22:57:06.711Z,3.58
2022-11-27T22:59:36.016Z,3.62
2022-11-27T23:02:04.063Z,3.57
2022-11-27T23:04:31.940Z,3.57
2022-11-27T23:07:03.043Z,3.56
2022-11-27T23:09:31.328Z,3.50
2022-11-27T23:11:59.033Z,3.60
2022-11-27T23:14:30.061Z,3.59
2022-11-27T23:16:57.680Z,3.57
2022-11-27T23:19:24.794Z,3.55
2022-11-27T23:21:52.292Z,3.55
2022-11-27T23:24:24.894Z,3.48
2022-11-27T23:26:52.281Z,3.46
2022-11-27T23:29:19.321Z,3.45
2022-11-27T23:31:48.802Z,3.45
2022-11-27T23:34:16.237Z,3.45
2022-11-27T23:36:44.343Z,3.38
2022-11-27T23:39:13.718Z,3.34
2022-11-27T23:41:42.582Z,3.29
2022-11-27T23:44:09.831Z,3.29
2022-11-27T23:46:38.382Z,3.32
2022-11-27T23:49:05.540Z,3.35
2022-11-27T23:51:33.859Z,3.35
2022-11-27T23:54:01.744Z,3.26
2022-11-27T23:56:32.220Z,3.24
2022-11-27T23:59:00.284Z,3.22
